Time;durP1;ratioP1;P1;durP2;ratioP2;P2;SDS_P1;SDS_P2;PMS_P1;PMS_P2;Temp;Humidity;BMP_temperature;BMP_pressure;BME280_temperature;BME280_humidity;BME280_pressure;Samples;Min_cycle;Max_cycle;Signal;HPM_P1;HPM_P2
2023/06/18 00:00:39;;;;;;;2.38;1.92;;;;;;;28.00;38.32;101440.78;5037339;28;20077;-31
2023/06/18 00:03:06;;;;;;;2.35;2.10;;;;;;;27.97;38.89;101442.03;5039380;28;20050;-31
2023/06/18 00:05:33;;;;;;;2.63;1.90;;;;;;;27.98;38.03;101445.59;5040014;28;20637;-32
2023/06/18 00:07:59;;;;;;;3.58;2.20;;;;;;;27.97;38.77;101443.91;5037723;28;20348;-32
2023/06/18 00:10:26;;;;;;;2.42;2.08;;;;;;;27.95;38.69;101441.41;5036039;28;20380;-32
2023/06/18 00:12:53;;;;;;;2.40;2.20;;;;;;;27.94;38.18;101439.72;5037780;28;20455;-31
2023/06/18 00:15:19;;;;;;;2.65;1.90;;;;;;;27.92;38.22;101438.25;5035395;28;20316;-31
2023/06/18 00:17:46;;;;;;;2.67;2.13;;;;;;;27.93;38.64;101437.19;5040177;28;20041;-31
2023/06/18 00:20:13;;;;;;;2.50;2.00;;;;;;;27.92;38.63;101444.53;5035387;28;20115;-32
2023/06/18 00:22:41;;;;;;;1.90;1.67;;;;;;;27.91;38.75;101444.75;5037797;28;20156;-32
2023/06/18 00:25:08;;;;;;;4.40;2.00;;;;;;;27.90;38.83;101437.59;5038867;28;20514;-32
2023/06/18 00:27:35;;;;;;;2.65;1.92;;;;;;;27.88;38.18;101440.53;5035072;28;20519;-31
2023/06/18 00:30:04;;;;;;;2.78;2.28;;;;;;;27.87;38.21;101433.41;5030834;28;20113;-31
2023/06/18 00:32:33;;;;;;;2.55;2.00;;;;;;;27.87;39.15;101433.41;5040170;28;20059;-31
2023/06/18 00:35:00;;;;;;;1.95;1.75;;;;;;;27.87;38.69;101435.31;5039672;28;20140;-31
2023/06/18 00:37:27;;;;;;;2.10;1.80;;;;;;;27.86;38.99;101431.75;5041323;28;20353;-31
2023/06/18 00:39:57;;;;;;;3.10;2.45;;;;;;;27.85;38.81;101432.78;5041117;28;20378;-32
2023/06/18 00:42:23;;;;;;;2.63;2.22;;;;;;;27.85;38.98;101430.03;5044903;28;20383;-31
2023/06/18 00:44:50;;;;;;;2.88;2.10;;;;;;;27.85;38.55;101429.22;5044393;28;20095;-32
2023/06/18 00:47:17;;;;;;;4.28;1.80;;;;;;;27.85;38.54;101429.22;5042613;28;20095;-31
2023/06/18 00:49:44;;;;;;;2.97;2.20;;;;;;;27.83;38.37;101423.97;5041828;28;20391;-31
2023/06/18 00:52:14;;;;;;;2.22;2.03;;;;;;;27.83;38.85;101423.13;5037197;28;20053;-31
2023/06/18 00:54:44;;;;;;;2.95;2.10;;;;;;;27.82;38.82;101416.84;5043311;28;20065;-32
2023/06/18 00:57:17;;;;;;;2.38;2.15;;;;;;;27.81;38.71;101420.59;5044364;28;20445;-31
2023/06/18 00:59:44;;;;;;;2.58;2.08;;;;;;;27.82;38.73;101421.44;5035704;28;20099;-31
2023/06/18 01:02:12;;;;;;;2.35;1.85;;;;;;;27.81;38.39;101420.59;5036451;28;20049;-31
2023/06/18 01:04:40;;;;;;;2.28;2.03;;;;;;;27.79;38.95;101423.53;5042329;28;20049;-31
2023/06/18 01:07:13;;;;;;;2.65;2.33;;;;;;;27.82;38.98;101418.72;5042977;28;20243;-32
2023/06/18 01:09:52;;;;;;;4.00;2.22;;;;;;;27.80;39.12;101416.22;5043436;28;20049;-32
2023/06/18 01:12:27;;;;;;;2.15;1.95;;;;;;;27.78;38.41;101413.69;5041263;28;20065;-31
2023/06/18 01:14:56;;;;;;;3.35;2.00;;;;;;;27.79;38.78;101412.66;5038112;28;20667;-32
2023/06/18 01:17:29;;;;;;;2.15;1.92;;;;;;;27.79;38.84;101414.53;5042088;28;20392;-31
2023/06/18 01:20:08;;;;;;;5.32;2.38;;;;;;;27.78;38.95;101412.88;5039741;28;20053;-31
2023/06/18 01:22:57;;;;;;;2.90;2.25;;;;;;;27.78;38.95;101418.31;5041027;28;20071;-32
2023/06/18 01:25:32;;;;;;;3.10;2.30;;;;;;;27.77;38.75;101412.00;5033598;28;20084;-31
2023/06/18 01:28:07;;;;;;;2.63;2.10;;;;;;;27.76;38.44;101406.75;5033428;28;20053;-31
2023/06/18 01:30:37;;;;;;;3.15;2.50;;;;;;;27.77;38.59;101411.16;5031602;28;20054;-32
2023/06/18 01:33:04;;;;;;;2.58;2.33;;;;;;;27.75;38.73;101411.38;5037282;28;20054;-32
2023/06/18 01:35:31;;;;;;;3.22;2.20;;;;;;;27.75;38.56;101403.22;5035798;28;20053;-31
2023/06/18 01:38:13;;;;;;;2.50;2.17;;;;;;;27.73;38.71;101399.84;5034280;28;20387;-31
2023/06/18 01:40:49;;;;;;;3.08;2.50;;;;;;;27.72;38.88;101400.84;5033035;28;20049;-32
2023/06/18 01:43:47;;;;;;;2.55;2.25;;;;;;;27.71;39.04;101401.91;5037913;28;20136;-32
2023/06/18 01:46:23;;;;;;;2.40;2.10;;;;;;;27.73;39.17;101396.25;5032730;28;20144;-31
2023/06/18 01:48:56;;;;;;;2.72;2.33;;;;;;;27.72;38.99;101394.56;5038508;28;20380;-31
2023/06/18 01:51:25;;;;;;;3.13;2.50;;;;;;;27.72;38.97;101394.56;5036846;28;20053;-31
2023/06/18 01:53:54;;;;;;;3.17;2.60;;;;;;;27.71;39.04;101390.16;5035465;28;20072;-31
2023/06/18 01:56:22;;;;;;;2.65;2.03;;;;;;;27.71;38.48;101391.00;5030678;28;20129;-32
2023/06/18 01:58:49;;;;;;;2.90;2.20;;;;;;;27.70;38.72;101388.47;5035298;28;20050;-31
2023/06/18 02:01:16;;;;;;;2.75;2.10;;;;;;;27.69;38.79;101384.91;5044861;28;20103;-31
2023/06/18 02:03:43;;;;;;;3.85;2.70;;;;;;;27.69;38.68;101387.63;5037716;28;20053;-31
2023/06/18 02:06:10;;;;;;;3.28;2.38;;;;;;;27.69;38.82;101381.34;5036792;28;20053;-31
2023/06/18 02:08:40;;;;;;;2.83;2.30;;;;;;;27.68;38.56;101387.84;5039734;28;20076;-31
2023/06/18 02:11:08;;;;;;;3.85;2.40;;;;;;;27.68;38.92;101387.84;5036365;28;20053;-32
2023/06/18 02:13:35;;;;;;;3.47;2.30;;;;;;;27.67;38.59;101380.72;5037772;28;20100;-32
2023/06/18 02:16:01;;;;;;;3.03;2.42;;;;;;;27.66;38.48;101388.06;5040809;28;20433;-31
2023/06/18 02:18:28;;;;;;;3.92;2.45;;;;;;;27.67;38.87;101394.34;5041914;28;20055;-32
2023/06/18 02:20:55;;;;;;;3.10;2.30;;;;;;;27.66;38.51;101381.75;5033157;28;20099;-31
2023/06/18 02:23:22;;;;;;;2.88;2.42;;;;;;;27.64;38.81;101373.81;5043230;28;20100;-31
2023/06/18 02:25:48;;;;;;;3.53;2.33;;;;;;;27.64;38.70;101376.53;5042262;28;20045;-32
2023/06/18 02:28:15;;;;;;;3.13;2.60;;;;;;;27.63;38.80;101374.03;5038935;28;20455;-31
2023/06/18 02:30:42;;;;;;;2.95;2.42;;;;;;;27.63;38.70;101365.84;5033398;28;20402;-31
2023/06/18 02:33:10;;;;;;;2.45;2.17;;;;;;;27.61;39.09;101365.19;5044391;28;20076;-31
2023/06/18 02:35:37;;;;;;;2.22;2.03;;;;;;;27.60;38.92;101366.25;5043673;28;20330;-31
2023/06/18 02:38:03;;;;;;;3.03;2.60;;;;;;;27.59;39.17;101356.41;5041642;28;20592;-31
2023/06/18 02:40:30;;;;;;;3.22;2.50;;;;;;;27.58;38.66;101358.28;5043063;28;20053;-31
2023/06/18 02:42:57;;;;;;;3.05;2.40;;;;;;;27.58;39.22;101362.88;5042516;28;20107;-32
2023/06/18 02:45:28;;;;;;;2.40;2.15;;;;;;;27.56;39.32;101363.94;5040673;28;20049;-31
2023/06/18 02:47:54;;;;;;;2.78;2.42;;;;;;;27.56;39.36;101363.09;5041551;28;20085;-31
2023/06/18 02:50:21;;;;;;;2.75;2.30;;;;;;;27.55;38.93;101362.25;5039870;28;20132;-31
2023/06/18 02:52:48;;;;;;;3.50;2.17;;;;;;;27.54;39.13;101362.47;5040142;28;20041;-32
2023/06/18 02:55:15;;;;;;;2.67;2.35;;;;;;;27.53;38.69;101349.88;5042220;28;20117;-31
2023/06/18 02:57:42;;;;;;;2.65;2.45;;;;;;;27.52;38.93;101359.94;5038559;28;20049;-31
2023/06/18 03:00:13;;;;;;;2.45;2.25;;;;;;;27.50;39.23;101353.88;5037193;28;20045;-31
2023/06/18 03:02:41;;;;;;;2.92;2.25;;;;;;;27.50;39.03;101356.59;5043349;28;20119;-32
2023/06/18 03:05:09;;;;;;;2.15;1.90;;;;;;;27.49;38.72;101354.06;5032250;28;20049;-31
2023/06/18 03:07:36;;;;;;;2.88;2.45;;;;;;;27.48;39.17;101355.09;5032694;28;20049;-31
2023/06/18 03:10:03;;;;;;;2.63;2.28;;;;;;;27.47;38.93;101354.28;5039695;28;20133;-31
2023/06/18 03:12:30;;;;;;;3.45;2.63;;;;;;;27.47;39.08;101358.88;5037042;28;20099;-32
2023/06/18 03:14:56;;;;;;;3.28;2.35;;;;;;;27.46;38.78;101349.88;5038617;28;20084;-31
2023/06/18 03:17:23;;;;;;;4.07;2.50;;;;;;;27.46;39.08;101355.31;5065695;28;20049;-31
2023/06/18 03:19:49;;;;;;;2.47;2.10;;;;;;;27.45;38.82;101356.34;5037047;28;20046;-31
2023/06/18 03:22:17;;;;;;;3.17;2.53;;;;;;;27.44;39.22;101351.94;5044563;28;20053;-32
2023/06/18 03:24:44;;;;;;;4.28;2.75;;;;;;;27.44;39.11;101353.84;5044590;28;20514;-31
2023/06/18 03:27:11;;;;;;;2.63;1.95;;;;;;;27.44;38.79;101354.66;5039886;28;20383;-31
2023/06/18 03:29:38;;;;;;;2.50;2.20;;;;;;;27.42;39.29;101354.06;5039168;28;20053;-31
2023/06/18 03:32:05;;;;;;;3.17;1.80;;;;;;;27.43;39.08;101355.72;5065809;28;20049;-32
2023/06/18 03:34:31;;;;;;;3.92;2.67;;;;;;;27.42;38.63;101356.78;5039742;28;20053;-31
2023/06/18 03:37:00;;;;;;;4.00;2.50;;;;;;;27.41;39.09;101352.34;5036100;28;20057;-30
2023/06/18 03:39:27;;;;;;;2.25;2.05;;;;;;;27.41;38.96;101357.78;5037817;28;20103;-31
2023/06/18 03:41:54;;;;;;;2.78;2.28;;;;;;;27.41;39.06;101354.22;5039373;28;20136;-33
2023/06/18 03:44:21;;;;;;;2.95;2.55;;;;;;;27.40;39.10;101352.56;5041711;28;20065;-31
2023/06/18 03:46:48;;;;;;;3.03;2.42;;;;;;;27.40;38.99;101358.00;5036475;28;20092;-31
2023/06/18 03:49:15;;;;;;;3.45;2.50;;;;;;;27.39;39.15;101357.19;5037341;28;20514;-31
2023/06/18 03:51:42;;;;;;;2.63;2.42;;;;;;;27.39;39.17;101361.78;5040184;28;20041;-32
2023/06/18 03:54:09;;;;;;;3.33;2.35;;;;;;;27.38;39.30;101358.22;5039195;28;20057;-31
2023/06/18 03:56:35;;;;;;;2.83;2.53;;;;;;;27.38;38.71;101354.63;5038578;28;20060;-31
2023/06/18 03:59:02;;;;;;;2.80;2.15;;;;;;;27.37;38.86;101361.97;5037400;28;20321;-31
2023/06/18 04:01:29;;;;;;;2.95;2.58;;;;;;;27.36;38.89;101371.19;5041170;28;20115;-31
2023/06/18 04:03:56;;;;;;;4.03;2.63;;;;;;;27.37;39.01;101372.84;5038731;28;20045;-31
2023/06/18 04:06:23;;;;;;;3.60;2.42;;;;;;;27.37;38.87;101372.03;5070493;28;20045;-32
2023/06/18 04:08:49;;;;;;;2.70;2.40;;;;;;;27.37;39.20;101372.84;5040748;28;20048;-31
2023/06/18 04:11:16;;;;;;;2.65;2.30;;;;;;;27.37;39.19;101378.31;5038795;28;20049;-31
2023/06/18 04:13:43;;;;;;;2.88;2.47;;;;;;;27.36;39.46;101373.91;5034080;28;20135;-31
2023/06/18 04:16:10;;;;;;;2.97;2.50;;;;;;;27.36;39.18;101376.63;5038582;28;20411;-31
2023/06/18 04:18:36;;;;;;;3.67;2.50;;;;;;;27.36;39.14;101373.91;5040781;28;20053;-31
2023/06/18 04:21:03;;;;;;;2.72;2.38;;;;;;;27.36;38.92;101370.34;5036535;28;20129;-31
2023/06/18 04:23:30;;;;;;;2.83;2.38;;;;;;;27.36;39.29;101371.19;5037604;28;20063;-32
2023/06/18 04:25:56;;;;;;;3.05;2.60;;;;;;;27.36;38.97;101371.19;5036420;28;20077;-32
2023/06/18 04:28:23;;;;;;;2.92;2.10;;;;;;;27.36;38.94;101371.19;5035308;28;20060;-31
2023/06/18 04:30:50;;;;;;;3.38;2.60;;;;;;;27.35;39.16;101366.78;5035494;28;20081;-32
2023/06/18 04:33:16;;;;;;;4.97;2.80;;;;;;;27.37;39.07;101369.28;5037164;28;20380;-31
2023/06/18 04:35:45;;;;;;;2.63;2.42;;;;;;;27.36;39.31;101376.63;5036097;28;20084;-31
2023/06/18 04:38:12;;;;;;;3.13;2.47;;;;;;;27.35;39.03;101374.97;5034751;28;20123;-31
2023/06/18 04:40:38;;;;;;;6.03;2.42;;;;;;;27.35;39.44;101377.69;5033945;28;20527;-32
2023/06/18 04:43:05;;;;;;;2.70;2.40;;;;;;;27.36;39.07;101375.78;5037125;28;20088;-32
2023/06/18 04:45:32;;;;;;;2.53;2.33;;;;;;;27.36;38.99;101373.91;5034744;28;20053;-32
2023/06/18 04:47:59;;;;;;;2.83;2.58;;;;;;;27.36;39.38;101367.63;5034976;28;20477;-31
2023/06/18 04:50:26;;;;;;;4.03;2.13;;;;;;;27.35;39.41;101364.06;5045019;28;20072;-32
2023/06/18 04:52:52;;;;;;;4.97;2.40;;;;;;;27.37;38.98;101374.75;5044043;28;20049;-31
2023/06/18 04:55:19;;;;;;;3.05;2.65;;;;;;;27.36;38.52;101375.78;5045691;28;20127;-32
2023/06/18 04:57:46;;;;;;;2.30;2.10;;;;;;;27.36;39.07;101370.34;5045982;28;20064;-32
2023/06/18 05:00:13;;;;;;;2.97;2.40;;;;;;;27.37;39.38;101372.03;5041221;28;20373;-32
2023/06/18 05:02:39;;;;;;;3.50;2.47;;;;;;;27.37;38.75;101372.03;5044587;28;20221;-32
2023/06/18 05:05:06;;;;;;;4.18;2.95;;;;;;;27.38;39.14;101370.97;5076514;28;20428;-32
2023/06/18 05:07:34;;;;;;;5.90;2.38;;;;;;;27.39;38.74;101373.50;5042752;28;20053;-32
2023/06/18 05:10:01;;;;;;;3.22;2.70;;;;;;;27.40;39.22;101363.47;5040890;28;20057;-32
2023/06/18 05:12:27;;;;;;;2.60;2.33;;;;;;;27.41;39.08;101365.13;5042066;28;20049;-32
2023/06/18 05:14:54;;;;;;;2.88;2.50;;;;;;;27.42;39.00;101369.53;5044097;28;20053;-32
2023/06/18 05:17:21;;;;;;;2.83;2.50;;;;;;;27.44;38.80;101367.44;5044215;28;20081;-32
2023/06/18 05:19:48;;;;;;;4.03;2.60;;;;;;;27.45;39.15;101369.94;5037585;28;20262;-32
2023/06/18 05:22:15;;;;;;;4.45;2.80;;;;;;;27.46;38.95;101370.81;5041714;28;20141;-31
2023/06/18 05:24:42;;;;;;;3.05;2.70;;;;;;;27.47;38.80;101369.78;5037439;28;20046;-32
2023/06/18 05:27:08;;;;;;;2.67;2.33;;;;;;;27.48;38.38;101376.88;5031187;28;20102;-32
2023/06/18 05:29:35;;;;;;;3.40;2.60;;;;;;;27.51;38.78;101384.66;5034636;28;20103;-32
2023/06/18 05:32:02;;;;;;;2.53;2.33;;;;;;;27.52;38.78;101379.00;5032491;28;20056;-32
2023/06/18 05:34:29;;;;;;;3.00;2.35;;;;;;;27.54;39.14;101381.53;5036233;28;20079;-32
2023/06/18 05:36:55;;;;;;;2.92;2.45;;;;;;;27.56;38.98;101379.44;5032730;28;20499;-32
2023/06/18 05:39:22;;;;;;;2.95;2.45;;;;;;;27.58;38.89;101379.22;5036070;28;20048;-31
2023/06/18 05:41:50;;;;;;;3.83;2.53;;;;;;;27.59;38.78;101373.59;5034727;28;20594;-32
2023/06/18 05:44:17;;;;;;;2.95;2.22;;;;;;;27.61;38.84;101371.47;5034105;28;20123;-33
2023/06/18 05:46:43;;;;;;;3.28;2.60;;;;;;;27.63;38.00;101379.47;5034358;28;20057;-32
2023/06/18 05:49:10;;;;;;;2.95;2.50;;;;;;;27.63;38.24;101385.75;5038622;28;20136;-32
2023/06/18 05:51:37;;;;;;;2.85;2.60;;;;;;;27.65;38.13;101380.91;5037729;28;20100;-32
2023/06/18 05:54:04;;;;;;;3.40;2.83;;;;;;;27.66;37.89;101379.03;5076495;28;20048;-32
2023/06/18 05:56:30;;;;;;;3.63;2.85;;;;;;;27.67;38.01;101372.56;5040387;28;20077;-31
2023/06/18 05:58:57;;;;;;;3.08;2.47;;;;;;;27.68;38.09;101377.78;5037553;28;20574;-31
2023/06/18 06:01:23;;;;;;;4.10;2.67;;;;;;;27.69;37.90;101370.47;5038355;28;20057;-31
2023/06/18 06:03:50;;;;;;;3.38;2.67;;;;;;;27.70;38.51;101374.84;5041206;28;20402;-31
2023/06/18 06:06:17;;;;;;;3.53;2.65;;;;;;;27.71;38.41;101380.13;5034909;28;20422;-32
2023/06/18 06:08:44;;;;;;;4.13;3.10;;;;;;;27.71;38.17;101382.00;5037364;28;20097;-31
2023/06/18 06:11:10;;;;;;;3.38;2.60;;;;;;;27.73;38.37;101390.78;5037221;28;20140;-31
2023/06/18 06:13:37;;;;;;;4.85;2.92;;;;;;;27.73;38.76;101382.63;5037083;28;20053;-31
2023/06/18 06:16:03;;;;;;;4.05;2.65;;;;;;;27.75;38.19;101383.31;5043953;28;20092;-31
2023/06/18 06:18:30;;;;;;;3.42;2.88;;;;;;;27.76;38.24;101377.63;5043129;28;20061;-32
2023/06/18 06:20:57;;;;;;;2.90;2.60;;;;;;;27.77;38.46;101383.91;5041176;28;20125;-31
2023/06/18 06:23:23;;;;;;;3.40;2.80;;;;;;;27.77;38.36;101382.03;5045143;28;20045;-31
2023/06/18 06:25:50;;;;;;;3.92;2.75;;;;;;;27.78;38.06;101385.63;5046357;28;20665;-31
2023/06/18 06:28:17;;;;;;;3.80;3.15;;;;;;;27.78;37.99;101389.19;5044032;28;20079;-32
2023/06/18 06:30:43;;;;;;;3.40;2.72;;;;;;;27.79;37.90;101381.84;5045362;28;20040;-32
2023/06/18 06:33:10;;;;;;;4.00;2.70;;;;;;;27.80;38.37;101391.69;5043664;28;20099;-31
2023/06/18 06:35:37;;;;;;;4.00;3.10;;;;;;;27.80;38.30;101388.97;5045569;28;20059;-31
2023/06/18 06:38:03;;;;;;;4.18;3.58;;;;;;;27.80;37.94;101388.97;5045716;28;20428;-31
2023/06/18 06:40:30;;;;;;;3.67;3.00;;;;;;;27.80;38.40;101395.25;5039630;28;20079;-31
2023/06/18 06:42:57;;;;;;;3.38;2.45;;;;;;;27.80;37.72;101395.25;5045225;28;20323;-32
2023/06/18 06:45:24;;;;;;;3.40;2.80;;;;;;;27.81;37.48;101396.09;5074855;28;20136;-32
2023/06/18 06:47:51;;;;;;;4.00;2.60;;;;;;;27.82;38.14;101396.91;5048036;28;20057;-32
2023/06/18 06:50:17;;;;;;;7.15;3.13;;;;;;;27.82;38.13;101395.06;5040810;28;20085;-31
2023/06/18 06:52:44;;;;;;;5.85;3.20;;;;;;;27.83;37.41;101409.53;5042160;28;20053;-31
2023/06/18 06:55:11;;;;;;;4.30;2.60;;;;;;;27.82;38.12;101438.66;5041714;28;20098;-31
2023/06/18 06:57:38;;;;;;;4.00;2.85;;;;;;;27.83;37.66;101453.09;5033346;28;20107;-32
2023/06/18 07:00:07;;;;;;;4.47;3.67;;;;;;;27.82;38.11;101408.69;5044286;28;20377;-31
2023/06/18 07:02:33;;;;;;;3.63;2.65;;;;;;;27.83;37.75;101412.25;5041712;28;20048;-32
2023/06/18 07:05:00;;;;;;;4.43;2.78;;;;;;;27.82;37.95;101441.38;5042770;28;20049;-32
2023/06/18 07:07:27;;;;;;;3.65;2.80;;;;;;;27.81;37.52;101445.13;5040276;28;20097;-32
2023/06/18 07:09:53;;;;;;;4.53;3.30;;;;;;;27.80;38.14;101433.38;5043224;28;20033;-32
2023/06/18 07:12:20;;;;;;;4.57;2.90;;;;;;;27.80;37.85;101427.94;5041453;28;20137;-32
2023/06/18 07:14:47;;;;;;;3.80;3.08;;;;;;;27.80;37.83;101421.66;5038021;28;20080;-32
2023/06/18 07:17:14;;;;;;;4.78;3.40;;;;;;;27.80;37.88;101435.28;5036640;28;20048;-32
2023/06/18 07:19:41;;;;;;;5.00;3.38;;;;;;;27.79;38.24;101426.28;5038523;28;20333;-31
2023/06/18 07:22:07;;;;;;;4.97;3.60;;;;;;;27.80;38.07;101419.75;5036732;28;20441;-32
2023/06/18 07:24:34;;;;;;;6.38;3.63;;;;;;;27.80;38.08;101422.50;5033519;28;20057;-32
2023/06/18 07:27:01;;;;;;;5.10;3.80;;;;;;;27.82;37.82;101430.47;5037279;28;20111;-32
2023/06/18 07:29:27;;;;;;;4.68;3.40;;;;;;;27.81;38.03;101431.50;5040315;28;20041;-32
2023/06/18 07:31:54;;;;;;;4.55;3.47;;;;;;;27.82;37.83;101427.75;5038060;28;20100;-32
2023/06/18 07:34:20;;;;;;;5.45;3.80;;;;;;;27.82;37.58;101419.59;5034404;28;20118;-32
2023/06/18 07:36:47;;;;;;;4.35;3.25;;;;;;;27.83;37.85;101420.41;5037375;28;20085;-32
2023/06/18 07:39:14;;;;;;;4.25;3.35;;;;;;;27.85;37.47;101423.75;5037081;28;20132;-32
2023/06/18 07:41:41;;;;;;;5.07;3.83;;;;;;;27.85;37.39;101421.88;5041087;28;20132;-32
2023/06/18 07:44:08;;;;;;;7.18;3.33;;;;;;;27.86;37.53;101415.41;5035596;28;20736;-32
2023/06/18 07:46:34;;;;;;;6.03;3.80;;;;;;;27.87;38.24;101417.06;5043931;28;20057;-31
2023/06/18 07:49:01;;;;;;;5.53;3.40;;;;;;;27.87;37.37;101411.63;5038250;28;20057;-32
2023/06/18 07:51:28;;;;;;;8.98;3.95;;;;;;;27.88;37.74;101409.72;5039166;28;20369;-32
2023/06/18 07:53:54;;;;;;;5.57;4.03;;;;;;;27.89;37.92;101404.06;5042938;28;20053;-32
2023/06/18 07:56:24;;;;;;;4.72;3.85;;;;;;;27.91;37.95;101412.06;5035780;28;20614;-32
2023/06/18 07:58:51;;;;;;;4.70;3.60;;;;;;;27.90;37.31;101408.50;5037898;28;20075;-32
2023/06/18 08:01:17;;;;;;;6.30;3.47;;;;;;;27.91;37.89;101414.78;5043076;28;20084;-32
2023/06/18 08:03:44;;;;;;;6.43;3.35;;;;;;;27.91;38.08;101410.16;5040440;28;20053;-32
2023/06/18 08:06:11;;;;;;;5.18;3.70;;;;;;;27.91;37.30;101415.63;5041516;28;20404;-32
2023/06/18 08:08:37;;;;;;;6.50;3.78;;;;;;;27.92;37.51;101411.00;5039772;28;20095;-32
2023/06/18 08:11:04;;;;;;;5.57;3.60;;;;;;;27.92;37.46;101411.84;5039367;28;20502;-33
2023/06/18 08:13:30;;;;;;;9.88;4.38;;;;;;;27.93;37.68;101405.34;5038654;28;20499;-32
2023/06/18 08:15:57;;;;;;;4.82;3.42;;;;;;;27.93;37.97;101408.06;5040587;28;20088;-32
2023/06/18 08:18:24;;;;;;;5.85;3.25;;;;;;;27.94;37.71;101407.03;5040839;28;20050;-33
2023/06/18 08:20:50;;;;;;;3.88;3.10;;;;;;;27.94;37.64;101407.03;5070697;28;20046;-33
2023/06/18 08:23:17;;;;;;;5.00;3.42;;;;;;;27.95;37.78;101399.69;5038888;28;20049;-32
2023/06/18 08:25:43;;;;;;;5.07;3.90;;;;;;;27.96;38.02;101399.47;5040995;28;20053;-32
2023/06/18 08:28:10;;;;;;;4.45;3.17;;;;;;;27.96;37.49;101402.22;5046042;28;20083;-32
2023/06/18 08:30:37;;;;;;;3.70;3.20;;;;;;;27.97;37.38;101400.31;5037722;28;20106;-32
2023/06/18 08:33:03;;;;;;;3.92;3.05;;;;;;;27.98;37.27;101394.69;5063662;28;20053;-32
2023/06/18 08:35:30;;;;;;;4.13;3.47;;;;;;;27.99;37.64;101395.50;5035748;28;20053;-33
2023/06/18 08:37:57;;;;;;;3.45;2.92;;;;;;;27.98;37.65;101391.94;5039067;28;20164;-32
2023/06/18 08:40:27;;;;;;;4.53;3.35;;;;;;;28.00;36.86;101391.72;5037421;28;20079;-32
2023/06/18 08:42:54;;;;;;;5.22;3.53;;;;;;;28.01;37.40;101402.41;5036037;28;20481;-31
2023/06/18 08:45:32;;;;;;;5.22;3.03;;;;;;;28.01;37.83;101391.50;5036696;28;20493;-32
2023/06/18 08:48:05;;;;;;;4.55;3.25;;;;;;;28.01;37.56;101388.78;5037459;28;20056;-31
2023/06/18 08:51:12;;;;;;;4.10;3.13;;;;;;;28.01;37.71;101393.41;5035405;28;20349;-32
2023/06/18 08:53:46;;;;;;;4.03;3.38;;;;;;;28.02;36.88;101386.91;5042821;28;20428;-32
2023/06/18 08:56:15;;;;;;;4.00;3.40;;;;;;;28.03;37.62;101391.31;5036738;28;20111;-32
2023/06/18 08:58:49;;;;;;;4.70;3.22;;;;;;;28.02;36.81;101387.78;5039689;28;20049;-32
2023/06/18 09:01:18;;;;;;;4.20;3.42;;;;;;;28.03;37.05;101384.00;5046482;28;20055;-32
2023/06/18 09:03:46;;;;;;;4.25;3.47;;;;;;;28.04;37.60;101384.81;5037434;28;20065;-31
2023/06/18 09:06:13;;;;;;;7.00;3.35;;;;;;;28.03;36.83;101381.25;5042635;28;20053;-32
2023/06/18 09:08:40;;;;;;;4.05;3.15;;;;;;;28.04;37.54;101385.66;5042227;28;20056;-32
2023/06/18 09:11:07;;;;;;;4.68;3.47;;;;;;;28.03;36.66;101389.44;5048665;28;20090;-32
2023/06/18 09:13:41;;;;;;;4.03;3.20;;;;;;;28.03;37.44;101381.25;5048208;28;20084;-32
2023/06/18 09:16:08;;;;;;;4.25;3.40;;;;;;;28.05;37.52;101386.50;5048180;28;20053;-32
2023/06/18 09:18:35;;;;;;;3.88;3.40;;;;;;;28.05;37.03;101392.78;5033218;28;20146;-32
2023/06/18 09:21:05;;;;;;;4.97;3.53;;;;;;;28.07;36.88;101395.31;5046558;28;20076;-32
2023/06/18 09:23:33;;;;;;;4.45;3.55;;;;;;;28.07;37.01;101389.03;5033504;28;20453;-32
2023/06/18 09:26:01;;;;;;;3.55;3.10;;;;;;;28.07;37.24;101389.88;5039342;28;20053;-32
2023/06/18 09:28:27;;;;;;;4.63;3.85;;;;;;;28.07;37.45;101378.97;5035524;28;20051;-32
2023/06/18 09:30:59;;;;;;;5.85;3.63;;;;;;;28.08;37.21;101382.53;5036653;28;20049;-33
2023/06/18 09:33:34;;;;;;;4.15;3.35;;;;;;;28.08;36.92;101379.81;5033856;28;20147;-34
2023/06/18 09:36:06;;;;;;;5.63;3.20;;;;;;;28.09;36.85;101376.84;5034754;28;20069;-32
2023/06/18 09:38:41;;;;;;;5.57;3.42;;;;;;;28.10;37.14;101377.69;5033214;28;20060;-32
2023/06/18 09:41:13;;;;;;;4.75;3.70;;;;;;;28.10;37.24;101380.41;5038823;28;20077;-32
2023/06/18 09:43:43;;;;;;;3.70;3.30;;;;;;;28.10;37.55;101375.84;5035258;28;20083;-32
2023/06/18 09:46:10;;;;;;;3.85;3.28;;;;;;;28.11;37.27;101371.22;5037476;28;20080;-32
2023/06/18 09:48:40;;;;;;;7.10;3.58;;;;;;;28.12;36.80;101378.34;5032636;28;20049;-32
2023/06/18 09:51:07;;;;;;;4.60;3.60;;;;;;;28.13;37.29;101374.56;5037663;28;20053;-32
2023/06/18 09:53:34;;;;;;;4.88;3.70;;;;;;;28.13;37.22;101369.09;5038424;28;20045;-32
2023/06/18 09:56:15;;;;;;;5.25;3.80;;;;;;;28.13;36.72;101374.56;5039078;28;20448;-33
2023/06/18 09:58:46;;;;;;;4.45;3.30;;;;;;;28.14;36.85;101378.94;5035474;28;20327;-33
2023/06/18 10:01:14;;;;;;;3.95;3.13;;;;;;;28.15;37.10;101375.19;5038672;28;20115;-32
2023/06/18 10:03:43;;;;;;;3.85;3.20;;;;;;;28.14;36.65;101379.81;5035574;28;20052;-32
2023/06/18 10:06:14;;;;;;;4.82;3.38;;;;;;;28.16;37.62;101376.88;5038397;28;20061;-32
2023/06/18 10:08:43;;;;;;;3.85;3.28;;;;;;;28.16;36.63;101382.31;5036668;28;20045;-32
2023/06/18 10:11:10;;;;;;;3.80;3.40;;;;;;;28.16;36.84;101383.16;5036541;28;20057;-32
2023/06/18 10:13:43;;;;;;;4.85;3.70;;;;;;;28.16;37.29;101372.25;5041979;28;20053;-32
2023/06/18 10:16:12;;;;;;;4.57;3.00;;;;;;;28.17;37.08;101373.09;5039714;28;20315;-32
2023/06/18 10:19:06;;;;;;;4.90;3.97;;;;;;;28.17;36.85;101367.63;5030911;28;20083;-31
2023/06/18 10:21:37;;;;;;;4.97;3.40;;;;;;;28.18;37.42;101369.31;5035176;28;20053;-32
2023/06/18 10:24:12;;;;;;;7.22;3.45;;;;;;;28.18;37.06;101374.75;5036244;28;20484;-32
2023/06/18 10:26:41;;;;;;;6.05;3.88;;;;;;;28.19;37.29;101371.00;5039535;28;20148;-31
2023/06/18 10:29:10;;;;;;;4.88;3.65;;;;;;;28.19;36.55;101371.00;5031365;28;20139;-31
2023/06/18 10:31:37;;;;;;;3.65;3.00;;;;;;;28.19;36.95;101362.84;5041064;28;20045;-31
2023/06/18 10:34:05;;;;;;;8.50;3.90;;;;;;;28.19;37.59;101366.41;5041734;28;20107;-31
2023/06/18 10:36:32;;;;;;;4.22;3.22;;;;;;;28.19;37.32;101369.13;5042619;28;20432;-32
2023/06/18 10:39:01;;;;;;;5.07;3.58;;;;;;;28.21;37.00;101368.91;5040534;28;20052;-31
2023/06/18 10:41:27;;;;;;;5.03;3.63;;;;;;;28.20;36.92;101361.78;5043792;28;20052;-32
2023/06/18 10:43:55;;;;;;;4.10;3.28;;;;;;;28.20;36.87;101357.16;5044469;28;20495;-31
2023/06/18 10:46:22;;;;;;;4.68;3.50;;;;;;;28.22;37.25;101354.22;5045381;28;20091;-31
2023/06/18 10:49:19;;;;;;;4.05;3.35;;;;;;;28.20;37.24;101351.72;5047242;28;20056;-32
2023/06/18 10:51:58;;;;;;;5.32;3.47;;;;;;;28.22;36.77;101351.50;5048128;28;20064;-31
2023/06/18 10:54:29;;;;;;;6.47;3.60;;;;;;;28.22;36.87;101346.91;5047119;28;20042;-31
2023/06/18 10:56:58;;;;;;;4.57;3.17;;;;;;;28.24;37.39;101349.41;5041744;28;20275;-31
2023/06/18 10:59:44;;;;;;;5.00;3.50;;;;;;;28.23;37.60;101342.28;5046349;28;20056;-32
2023/06/18 11:02:12;;;;;;;3.95;3.17;;;;;;;28.24;37.09;101346.69;5040601;28;20089;-32
2023/06/18 11:04:40;;;;;;;4.10;3.42;;;;;;;28.23;36.74;101345.84;5044685;28;20057;-32
2023/06/18 11:07:25;;;;;;;5.13;3.58;;;;;;;28.23;37.37;101339.56;5043779;28;20045;-31
2023/06/18 11:09:57;;;;;;;5.28;3.88;;;;;;;28.24;37.14;101338.50;5042799;28;20179;-31
2023/06/18 11:12:26;;;;;;;4.63;4.07;;;;;;;28.25;37.07;101334.72;5036526;28;20068;-31
2023/06/18 11:15:06;;;;;;;4.28;3.47;;;;;;;28.24;36.73;101325.72;5039936;28;20096;-31
2023/06/18 11:17:33;;;;;;;3.92;3.25;;;;;;;28.26;37.27;101333.66;5043464;28;20383;-31
2023/06/18 11:20:01;;;;;;;5.30;3.40;;;;;;;28.26;37.07;101330.94;5040634;28;20053;-31
2023/06/18 11:22:28;;;;;;;3.30;3.00;;;;;;;28.27;36.97;101324.47;5037765;28;20038;-32
2023/06/18 11:24:57;;;;;;;4.55;3.78;;;;;;;28.26;37.23;101328.22;5040378;28;20661;-32
2023/06/18 11:27:25;;;;;;;4.85;3.83;;;;;;;28.28;37.28;101334.31;5038153;28;20045;-32
2023/06/18 11:29:58;;;;;;;4.55;3.60;;;;;;;28.27;37.10;101330.75;5033575;28;20080;-32